Terminal Aerodrome Forecast
Issued by NWS

Home | Current Version | Previous Version | Graphics & Text | Print | Product List | Glossary On
Versions: 1 2 3 4 5 6 7 8 9 10 11 12 13 14 15 16 17 18 19
603
FTUS43 KBIS 170530
TAFDIK
TAF
KDIK 170530Z 1706/1806 20008KT P6SM BKN110
     FM170900 27012KT P6SM SCT100 BKN150 WS020/29040KT
     FM171500 27015KT P6SM BKN100 WS020/29045KT
     FM171700 27018G25KT P6SM SCT100
     FM180200 25009KT P6SM FEW090=

USA.gov is the U.S. government's official web portal to all federal, state and local government web resources and services.